Terminal Aerodrome Forecast
Issued by NWS Billings, MT

Home | Current Version | Previous Version | Text Only | Print | Product List | Glossary On
Versions: 1 2 3 4 5 6 7 8 9 10 11 12 13 14 15 16 17
000
FTUS45 KBYZ 171728
TAFSHR
TAF
KSHR 171728Z 1718/1818 15005KT P6SM VCSH OVC090
     FM180400 24030G45KT P6SM BKN120
     FM181100 35015G25KT 1SM -SN BR SCT015 OVC025
     FM181400 35017G28KT 2SM -SN BR BKN015 OVC025=

USA.gov is the U.S. government's official web portal to all federal, state and local government web resources and services.